Time;durP1;ratioP1;P1;durP2;ratioP2;P2;SDS_P1;SDS_P2;PMS_P1;PMS_P2;Temp;Humidity;BMP_temperature;BMP_pressure;BME280_temperature;BME280_humidity;BME280_pressure;Samples;Min_cycle;Max_cycle;Signal;HPM_P1;HPM_P2
2022/03/09 00:00:58;;;;;;;17.67;10.67;;;;;;;-145.18;100.00;47586.38;4914338;29;20043;-61
2022/03/09 00:03:23;;;;;;;22.07;10.60;;;;;;;-145.18;100.00;47594.19;4931665;29;20509;-62
2022/03/09 00:05:49;;;;;;;20.93;11.40;;;;;;;-145.18;100.00;47611.78;4931589;29;20048;-61
2022/03/09 00:08:14;;;;;;;29.77;14.37;;;;;;;-145.18;100.00;47562.94;4931654;29;20402;-61
2022/03/09 00:10:40;;;;;;;33.43;14.70;;;;;;;-145.18;100.00;47564.91;4931200;29;20094;-61
2022/03/09 00:13:06;;;;;;;31.42;16.00;;;;;;;-145.18;100.00;47588.34;4931189;29;20071;-61
2022/03/09 00:15:32;;;;;;;25.63;13.27;;;;;;;-145.18;100.00;47551.22;4931575;29;20071;-62
2022/03/09 00:17:57;;;;;;;28.93;14.00;;;;;;;-145.18;100.00;47564.91;4931095;29;20055;-60
2022/03/09 00:20:23;;;;;;;21.93;11.73;;;;;;;-145.18;100.00;47578.56;4932147;29;20052;-61
2022/03/09 00:22:48;;;;;;;20.07;11.37;;;;;;;-145.18;100.00;47580.53;4913792;29;20115;-61
2022/03/09 00:25:13;;;;;;;27.57;12.23;;;;;;;-145.18;100.00;47586.38;4930882;29;20235;-61
2022/03/09 00:27:39;;;;;;;23.83;12.67;;;;;;;-145.18;100.00;47578.56;4930762;29;20035;-61
2022/03/09 00:30:05;;;;;;;25.27;13.10;;;;;;;-145.18;100.00;47605.94;4931322;29;20611;-62
2022/03/09 00:32:31;;;;;;;29.00;14.60;;;;;;;-145.18;100.00;47603.97;4930660;29;20134;-62
2022/03/09 00:34:56;;;;;;;29.67;14.33;;;;;;;-145.18;100.00;47584.44;4931635;29;20067;-61
2022/03/09 00:37:22;;;;;;;30.80;14.60;;;;;;;-145.18;100.00;47598.09;4913710;29;20144;-61
2022/03/09 00:39:47;;;;;;;27.43;13.10;;;;;;;-145.18;100.00;47605.94;4930713;29;20051;-61
2022/03/09 00:42:13;;;;;;;23.97;12.80;;;;;;;-145.18;100.00;47600.06;4930644;29;20040;-61
2022/03/09 00:44:38;;;;;;;24.17;12.70;;;;;;;-145.18;100.00;47592.25;4930738;29;20059;-62
2022/03/09 00:47:04;;;;;;;27.77;13.83;;;;;;;-145.18;100.00;47607.88;4930407;29;20070;-62
2022/03/09 00:49:29;;;;;;;22.47;12.27;;;;;;;-145.18;100.00;47584.44;4931677;29;20107;-61
2022/03/09 00:51:54;;;;;;;22.77;12.63;;;;;;;-145.18;100.00;47600.06;4930328;29;20476;-61
2022/03/09 00:54:20;;;;;;;20.80;11.60;;;;;;;-145.18;100.00;47611.78;4930798;29;20102;-62
2022/03/09 00:56:45;;;;;;;20.33;11.33;;;;;;;-145.18;100.00;47592.25;4930201;29;20118;-61
2022/03/09 00:59:11;;;;;;;17.27;10.87;;;;;;;-145.18;100.00;47594.19;4930593;29;20126;-61
2022/03/09 01:01:36;;;;;;;19.80;10.93;;;;;;;-145.18;100.00;47584.44;4930971;29;20505;-61
2022/03/09 01:04:01;;;;;;;20.40;10.43;;;;;;;-145.18;100.00;47596.16;4930678;29;20382;-61
2022/03/09 01:06:27;;;;;;;22.07;10.83;;;;;;;-145.18;100.00;47594.19;4930258;29;20110;-61
2022/03/09 01:08:52;;;;;;;21.57;11.10;;;;;;;-145.18;100.00;47625.47;4929867;29;20058;-61
2022/03/09 01:11:19;;;;;;;20.33;10.77;;;;;;;-145.18;100.00;47609.84;4930121;29;20047;-61
2022/03/09 01:13:44;;;;;;;18.48;10.10;;;;;;;-145.18;100.00;47627.41;4930126;29;20460;-61
2022/03/09 01:16:10;;;;;;;22.43;11.47;;;;;;;-145.18;100.00;47611.78;4930936;29;20044;-61
2022/03/09 01:18:35;;;;;;;24.10;11.30;;;;;;;-145.18;100.00;47609.84;4930008;29;20040;-61
2022/03/09 01:21:00;;;;;;;18.77;10.57;;;;;;;-145.18;100.00;47598.09;4930338;29;20100;-61
2022/03/09 01:23:26;;;;;;;19.70;10.90;;;;;;;-145.18;100.00;47605.94;4930133;29;20094;-61
2022/03/09 01:25:54;;;;;;;27.97;11.70;;;;;;;-145.18;100.00;47621.56;4930035;29;20506;-61
2022/03/09 01:28:19;;;;;;;18.75;10.38;;;;;;;-145.18;100.00;47617.66;4913206;29;20043;-62
2022/03/09 01:30:45;;;;;;;20.50;10.50;;;;;;;-145.18;100.00;47598.09;4930223;29;20093;-62
2022/03/09 01:33:10;;;;;;;19.43;10.83;;;;;;;-145.18;100.00;47603.97;4930459;29;20047;-61
2022/03/09 01:35:35;;;;;;;20.83;11.37;;;;;;;-145.18;100.00;47603.97;4929715;29;20502;-61
2022/03/09 01:38:01;;;;;;;24.10;11.90;;;;;;;-145.18;100.00;47609.84;4929674;29;20035;-61
2022/03/09 01:40:26;;;;;;;21.10;11.47;;;;;;;-145.18;100.00;47633.28;4930044;29;20039;-61
2022/03/09 01:42:52;;;;;;;20.53;10.50;;;;;;;-145.18;100.00;47615.69;4929736;29;20051;-61
2022/03/09 01:45:20;;;;;;;18.13;10.17;;;;;;;-145.18;100.00;47623.50;4929589;29;20044;-62
2022/03/09 01:47:45;;;;;;;20.95;10.98;;;;;;;-145.18;100.00;47623.50;4930356;29;20039;-61
2022/03/09 01:50:11;;;;;;;24.57;11.73;;;;;;;-145.18;100.00;47627.41;4930125;29;20036;-61
2022/03/09 01:52:37;;;;;;;25.10;12.20;;;;;;;-145.18;100.00;47609.84;4929258;29;20556;-61
2022/03/09 01:55:03;;;;;;;21.50;11.68;;;;;;;-145.18;100.00;47641.09;4930078;29;20400;-61
2022/03/09 01:57:30;;;;;;;20.45;11.85;;;;;;;-145.18;100.00;47600.06;4929424;29;20154;-62
2022/03/09 01:59:56;;;;;;;20.35;11.43;;;;;;;-145.18;100.00;47629.38;4929783;29;20584;-61
2022/03/09 02:02:21;;;;;;;19.63;11.07;;;;;;;-145.18;100.00;47621.56;4929218;29;20055;-62
2022/03/09 02:04:48;;;;;;;19.83;10.40;;;;;;;-145.18;100.00;47619.59;4930498;29;20051;-61
2022/03/09 02:07:14;;;;;;;21.42;11.02;;;;;;;-145.18;100.00;47637.19;4928911;29;20103;-60
2022/03/09 02:09:44;;;;;;;23.07;11.07;;;;;;;-145.18;100.00;47623.50;4929837;29;20453;-61
2022/03/09 02:12:12;;;;;;;20.90;11.00;;;;;;;-145.18;100.00;47617.66;4929442;29;20051;-61
2022/03/09 02:14:51;;;;;;;18.80;11.63;;;;;;;-145.18;100.00;47639.13;4929412;29;20583;-61
2022/03/09 02:17:26;;;;;;;24.23;12.48;;;;;;;-145.18;100.00;47650.88;4929379;29;20501;-61
2022/03/09 02:19:52;;;;;;;19.73;10.57;;;;;;;-145.18;100.00;47633.28;4930921;29;20194;-61
2022/03/09 02:22:38;;;;;;;21.02;10.75;;;;;;;-145.18;100.00;47629.38;4933115;29;20063;-61
2022/03/09 02:25:12;;;;;;;20.27;11.37;;;;;;;-145.18;100.00;47652.81;4933818;29;20124;-61
2022/03/09 02:27:38;;;;;;;21.63;11.57;;;;;;;-145.18;100.00;47619.59;4932894;29;20276;-61
2022/03/09 02:30:06;;;;;;;23.73;11.27;;;;;;;-145.18;100.00;47656.72;4933767;29;20048;-61
2022/03/09 02:32:31;;;;;;;26.80;10.65;;;;;;;-145.18;100.00;47617.66;4932743;29;20111;-61
2022/03/09 02:34:56;;;;;;;21.30;11.27;;;;;;;-145.18;100.00;47631.31;4933481;29;20044;-61
2022/03/09 02:37:22;;;;;;;23.13;11.73;;;;;;;-145.18;100.00;47645.00;4932930;29;20047;-61
2022/03/09 02:39:48;;;;;;;18.23;10.53;;;;;;;-145.18;100.00;47645.00;4932998;29;20452;-61
2022/03/09 02:42:14;;;;;;;18.13;10.07;;;;;;;-145.18;100.00;47666.50;4933675;29;20501;-61
2022/03/09 02:44:39;;;;;;;19.48;10.40;;;;;;;-145.18;100.00;47637.19;4932733;29;20505;-61
2022/03/09 02:47:05;;;;;;;20.07;10.27;;;;;;;-145.18;100.00;47629.38;4932845;29;20036;-61
2022/03/09 02:49:31;;;;;;;17.53;9.90;;;;;;;-145.18;100.00;47629.38;4933261;29;20509;-61
2022/03/09 02:51:57;;;;;;;19.70;10.30;;;;;;;-145.18;100.00;47631.31;4932619;29;20370;-61
2022/03/09 02:54:22;;;;;;;17.80;10.20;;;;;;;-145.18;100.00;47650.88;4932991;29;20070;-62
2022/03/09 02:56:48;;;;;;;16.77;9.97;;;;;;;-145.18;100.00;47646.97;4932961;29;20048;-61
2022/03/09 02:59:13;;;;;;;16.83;10.47;;;;;;;-145.18;100.00;47648.91;4932900;29;20098;-61
